sensor_id;sensor_type;location;lat;lon;timestamp;pressure;altitude;pressure_sealevel;temperature;humidity
9523;BME280;63165;43.016;25.784;2023-04-09T00:00:32;100502.78;;;5.08;82.03
9523;BME280;63165;43.016;25.784;2023-04-09T00:02:59;100457.47;;;4.80;82.07
9523;BME280;63165;43.016;25.784;2023-04-09T00:05:28;100531.13;;;4.93;81.81
9523;BME280;63165;43.016;25.784;2023-04-09T00:07:55;100503.47;;;4.95;81.90
9523;BME280;63165;43.016;25.784;2023-04-09T00:10:22;100496.53;;;4.91;81.84
9523;BME280;63165;43.016;25.784;2023-04-09T00:12:50;100493.72;;;4.75;81.95
9523;BME280;63165;43.016;25.784;2023-04-09T00:15:17;100498.16;;;4.84;82.08
9523;BME280;63165;43.016;25.784;2023-04-09T00:17:44;100478.91;;;4.66;82.00
9523;BME280;63165;43.016;25.784;2023-04-09T00:20:11;100501.41;;;4.71;82.39
9523;BME280;63165;43.016;25.784;2023-04-09T00:22:40;100505.06;;;4.83;82.72
9523;BME280;63165;43.016;25.784;2023-04-09T00:25:08;100502.38;;;4.77;82.47
9523;BME280;63165;43.016;25.784;2023-04-09T00:27:35;100503.97;;;4.67;82.74
9523;BME280;63165;43.016;25.784;2023-04-09T00:30:02;100496.22;;;4.69;82.86
9523;BME280;63165;43.016;25.784;2023-04-09T00:32:30;100501.38;;;4.67;82.80
9523;BME280;63165;43.016;25.784;2023-04-09T00:34:57;100511.00;;;4.76;82.63
9523;BME280;63165;43.016;25.784;2023-04-09T00:37:24;100517.94;;;4.77;82.12
9523;BME280;63165;43.016;25.784;2023-04-09T00:39:53;100512.69;;;4.73;81.92
9523;BME280;63165;43.016;25.784;2023-04-09T00:42:20;100455.09;;;4.33;81.88
9523;BME280;63165;43.016;25.784;2023-04-09T00:44:48;100509.03;;;4.58;82.47
9523;BME280;63165;43.016;25.784;2023-04-09T00:47:15;100503.81;;;4.57;82.15
9523;BME280;63165;43.016;25.784;2023-04-09T00:49:43;100466.22;;;4.27;82.25
9523;BME280;63165;43.016;25.784;2023-04-09T00:52:11;100415.13;;;3.63;82.30
9523;BME280;63165;43.016;25.784;2023-04-09T01:44:18;100486.53;;;4.04;81.98
9523;BME280;63165;43.016;25.784;2023-04-09T01:46:46;100496.00;;;4.00;82.36
9523;BME280;63165;43.016;25.784;2023-04-09T01:49:15;100491.59;;;3.96;81.82
9523;BME280;63165;43.016;25.784;2023-04-09T01:51:43;100497.56;;;3.92;81.64
9523;BME280;63165;43.016;25.784;2023-04-09T01:54:11;100500.16;;;3.92;82.24
9523;BME280;63165;43.016;25.784;2023-04-09T01:56:42;100497.66;;;3.95;82.03
9523;BME280;63165;43.016;25.784;2023-04-09T01:59:09;100504.56;;;3.98;81.96
9523;BME280;63165;43.016;25.784;2023-04-09T02:01:44;100491.59;;;3.95;81.88
9523;BME280;63165;43.016;25.784;2023-04-09T02:04:16;100501.06;;;3.94;81.99
9523;BME280;63165;43.016;25.784;2023-04-09T02:06:49;100501.88;;;3.92;81.44
9523;BME280;63165;43.016;25.784;2023-04-09T02:09:20;100501.00;;;3.89;81.43
9523;BME280;63165;43.016;25.784;2023-04-09T02:11:47;100499.19;;;3.87;81.46
9523;BME280;63165;43.016;25.784;2023-04-09T02:14:17;100499.16;;;3.84;81.60
9523;BME280;63165;43.016;25.784;2023-04-09T02:16:48;100494.81;;;3.83;81.84
9523;BME280;63165;43.016;25.784;2023-04-09T02:19:15;100498.28;;;3.83;81.98
9523;BME280;63165;43.016;25.784;2023-04-09T02:21:42;100491.41;;;3.84;81.10
9523;BME280;63165;43.016;25.784;2023-04-09T02:24:09;100492.13;;;3.77;81.70
9523;BME280;63165;43.016;25.784;2023-04-09T02:26:37;100492.97;;;3.74;81.63
9523;BME280;63165;43.016;25.784;2023-04-09T02:29:04;100503.31;;;3.76;81.55
9523;BME280;63165;43.016;25.784;2023-04-09T02:31:31;100514.50;;;3.73;81.42
9523;BME280;63165;43.016;25.784;2023-04-09T02:34:00;100505.75;;;3.68;81.56
9523;BME280;63165;43.016;25.784;2023-04-09T02:36:27;100511.84;;;3.68;81.69
9523;BME280;63165;43.016;25.784;2023-04-09T02:38:55;100506.66;;;3.70;81.83
9523;BME280;63165;43.016;25.784;2023-04-09T02:41:22;100509.28;;;3.72;81.99
9523;BME280;63165;43.016;25.784;2023-04-09T02:43:50;100509.25;;;3.70;82.11
9523;BME280;63165;43.016;25.784;2023-04-09T02:46:17;100520.50;;;3.71;81.85
9523;BME280;63165;43.016;25.784;2023-04-09T02:48:45;100507.56;;;3.72;81.96
9523;BME280;63165;43.016;25.784;2023-04-09T02:51:13;100511.97;;;3.76;82.03
9523;BME280;63165;43.016;25.784;2023-04-09T02:53:40;100515.50;;;3.80;81.63
9523;BME280;63165;43.016;25.784;2023-04-09T02:56:08;100522.44;;;3.82;81.60
9523;BME280;63165;43.016;25.784;2023-04-09T02:58:35;100512.91;;;3.80;81.35
9523;BME280;63165;43.016;25.784;2023-04-09T03:01:02;100515.47;;;3.78;81.31
9523;BME280;63165;43.016;25.784;2023-04-09T03:03:29;100524.09;;;3.79;81.18
9523;BME280;63165;43.016;25.784;2023-04-09T03:05:56;100523.22;;;3.78;81.09
9523;BME280;63165;43.016;25.784;2023-04-09T03:08:25;100527.50;;;3.76;81.16
9523;BME280;63165;43.016;25.784;2023-04-09T03:10:52;100521.44;;;3.74;80.99
9523;BME280;63165;43.016;25.784;2023-04-09T03:13:20;100515.34;;;3.74;81.22
9523;BME280;63165;43.016;25.784;2023-04-09T03:15:50;100522.19;;;3.68;81.21
9523;BME280;63165;43.016;25.784;2023-04-09T03:18:17;100525.53;;;3.63;81.37
9523;BME280;63165;43.016;25.784;2023-04-09T03:20:45;100528.03;;;3.60;81.36
9523;BME280;63165;43.016;25.784;2023-04-09T03:23:12;100538.28;;;3.55;81.61
9523;BME280;63165;43.016;25.784;2023-04-09T03:25:41;100536.44;;;3.49;81.86
9523;BME280;63165;43.016;25.784;2023-04-09T03:28:08;100533.78;;;3.45;82.20
9523;BME280;63165;43.016;25.784;2023-04-09T03:30:35;100544.13;;;3.45;82.76
9523;BME280;63165;43.016;25.784;2023-04-09T03:33:03;100539.88;;;3.47;82.21
9523;BME280;63165;43.016;25.784;2023-04-09T03:35:30;100536.56;;;3.54;82.36
9523;BME280;63165;43.016;25.784;2023-04-09T03:37:57;100544.44;;;3.60;82.40
9523;BME280;63165;43.016;25.784;2023-04-09T03:40:24;100546.19;;;3.61;82.44
9523;BME280;63165;43.016;25.784;2023-04-09T03:42:53;100546.19;;;3.61;82.00
9523;BME280;63165;43.016;25.784;2023-04-09T03:45:20;100543.66;;;3.63;81.61
9523;BME280;63165;43.016;25.784;2023-04-09T03:47:47;100544.50;;;3.63;82.06
9523;BME280;63165;43.016;25.784;2023-04-09T03:50:15;100548.81;;;3.63;81.83
9523;BME280;63165;43.016;25.784;2023-04-09T03:52:42;100547.09;;;3.63;81.43
9523;BME280;63165;43.016;25.784;2023-04-09T03:55:09;100551.41;;;3.64;81.94
9523;BME280;63165;43.016;25.784;2023-04-09T03:57:36;100555.66;;;3.61;81.67
9523;BME280;63165;43.016;25.784;2023-04-09T04:00:06;100553.00;;;3.56;81.38
9523;BME280;63165;43.016;25.784;2023-04-09T04:02:33;100547.81;;;3.56;81.79
9523;BME280;63165;43.016;25.784;2023-04-09T04:05:01;100546.13;;;3.58;81.82
9523;BME280;63165;43.016;25.784;2023-04-09T04:07:28;100556.41;;;3.55;82.05
9523;BME280;63165;43.016;25.784;2023-04-09T04:09:56;100552.91;;;3.53;81.99
9523;BME280;63165;43.016;25.784;2023-04-09T04:12:23;100548.63;;;3.54;82.31
9523;BME280;63165;43.016;25.784;2023-04-09T04:14:50;100551.22;;;3.55;82.43
9523;BME280;63165;43.016;25.784;2023-04-09T04:17:19;100547.00;;;3.59;83.07
9523;BME280;63165;43.016;25.784;2023-04-09T04:19:47;100551.41;;;3.64;82.99
9523;BME280;63165;43.016;25.784;2023-04-09T04:22:14;100555.84;;;3.70;83.10
9523;BME280;63165;43.016;25.784;2023-04-09T04:24:41;100554.16;;;3.72;83.39
9523;BME280;63165;43.016;25.784;2023-04-09T04:27:08;100549.94;;;3.77;82.84
9523;BME280;63165;43.016;25.784;2023-04-09T04:29:35;100556.03;;;3.81;82.53
9523;BME280;63165;43.016;25.784;2023-04-09T04:32:04;100555.97;;;3.78;82.49
9523;BME280;63165;43.016;25.784;2023-04-09T04:34:33;100555.97;;;3.76;83.25
9523;BME280;63165;43.016;25.784;2023-04-09T04:37:00;100549.03;;;3.75;83.33
9523;BME280;63165;43.016;25.784;2023-04-09T04:39:29;100559.47;;;3.78;83.46
9523;BME280;63165;43.016;25.784;2023-04-09T04:41:56;100550.91;;;3.82;83.66
9523;BME280;63165;43.016;25.784;2023-04-09T04:44:23;100554.44;;;3.86;84.39
9523;BME280;63165;43.016;25.784;2023-04-09T04:46:51;100546.75;;;3.92;84.32
9523;BME280;63165;43.016;25.784;2023-04-09T04:49:18;100547.66;;;3.94;84.67
9523;BME280;63165;43.016;25.784;2023-04-09T04:51:47;100550.38;;;4.00;84.94
9523;BME280;63165;43.016;25.784;2023-04-09T04:54:14;100569.44;;;4.05;85.40
9523;BME280;63165;43.016;25.784;2023-04-09T04:56:41;100555.66;;;4.06;85.90
9523;BME280;63165;43.016;25.784;2023-04-09T04:59:08;100560.88;;;4.09;87.11
9523;BME280;63165;43.016;25.784;2023-04-09T05:01:35;100558.41;;;4.16;88.10
9523;BME280;63165;43.016;25.784;2023-04-09T05:04:03;100565.44;;;4.24;88.04
9523;BME280;63165;43.016;25.784;2023-04-09T05:06:30;100556.97;;;4.33;88.14
9523;BME280;63165;43.016;25.784;2023-04-09T05:09:00;100570.06;;;4.41;88.95
9523;BME280;63165;43.016;25.784;2023-04-09T05:11:27;100573.69;;;4.52;89.79
9523;BME280;63165;43.016;25.784;2023-04-09T05:13:54;100563.47;;;4.61;90.45
9523;BME280;63165;43.016;25.784;2023-04-09T05:16:21;100562.78;;;4.72;91.22
9523;BME280;63165;43.016;25.784;2023-04-09T05:18:48;100562.94;;;4.82;91.62
9523;BME280;63165;43.016;25.784;2023-04-09T05:21:16;100564.81;;;4.93;92.66
9523;BME280;63165;43.016;25.784;2023-04-09T05:23:43;100566.75;;;5.06;93.48
9523;BME280;63165;43.016;25.784;2023-04-09T05:26:12;100559.13;;;5.17;93.10
9523;BME280;63165;43.016;25.784;2023-04-09T05:28:39;100566.13;;;5.24;93.44
9523;BME280;63165;43.016;25.784;2023-04-09T05:31:06;100568.88;;;5.36;93.26
9523;BME280;63165;43.016;25.784;2023-04-09T05:33:37;100563.00;;;5.48;93.46
9523;BME280;63165;43.016;25.784;2023-04-09T05:36:05;100560.50;;;5.59;93.84
9523;BME280;63165;43.016;25.784;2023-04-09T05:38:33;100558.91;;;5.72;94.29
9523;BME280;63165;43.016;25.784;2023-04-09T05:41:00;100551.28;;;5.84;94.76
9523;BME280;63165;43.016;25.784;2023-04-09T05:43:30;100563.53;;;5.96;94.06
9523;BME280;63165;43.016;25.784;2023-04-09T05:45:58;100565.44;;;6.11;93.88
9523;BME280;63165;43.016;25.784;2023-04-09T05:48:27;100566.41;;;6.24;94.47
9523;BME280;63165;43.016;25.784;2023-04-09T05:50:54;100563.91;;;6.36;93.21
9523;BME280;63165;43.016;25.784;2023-04-09T05:53:21;100564.94;;;6.52;93.19
9523;BME280;63165;43.016;25.784;2023-04-09T05:55:49;100563.28;;;6.63;92.65
9523;BME280;63165;43.016;25.784;2023-04-09T05:58:17;100552.97;;;6.77;92.41
9523;BME280;63165;43.016;25.784;2023-04-09T06:00:46;100556.53;;;6.91;91.33
9523;BME280;63165;43.016;25.784;2023-04-09T06:03:13;100561.78;;;6.99;90.53
9523;BME280;63165;43.016;25.784;2023-04-09T06:05:40;100557.50;;;7.04;89.30
9523;BME280;63165;43.016;25.784;2023-04-09T06:08:07;100564.47;;;7.10;88.80
9523;BME280;63165;43.016;25.784;2023-04-09T06:10:35;100556.75;;;7.22;89.19
9523;BME280;63165;43.016;25.784;2023-04-09T06:13:02;100566.38;;;7.37;89.52
9523;BME280;63165;43.016;25.784;2023-04-09T06:15:30;100562.06;;;7.53;89.16
9523;BME280;63165;43.016;25.784;2023-04-09T06:18:15;100549.13;;;7.70;89.71
9523;BME280;63165;43.016;25.784;2023-04-09T06:20:44;100546.56;;;7.88;89.19
9523;BME280;63165;43.016;25.784;2023-04-09T06:23:12;100556.13;;;8.08;88.89
9523;BME280;63165;43.016;25.784;2023-04-09T06:25:39;100548.34;;;8.26;89.19
9523;BME280;63165;43.016;25.784;2023-04-09T06:28:07;100558.81;;;8.46;89.22
9523;BME280;63165;43.016;25.784;2023-04-09T06:30:36;100563.16;;;8.69;88.33
9523;BME280;63165;43.016;25.784;2023-04-09T06:33:03;100550.97;;;8.88;87.58
9523;BME280;63165;43.016;25.784;2023-04-09T06:35:32;100548.31;;;9.05;86.45
9523;BME280;63165;43.016;25.784;2023-04-09T06:38:00;100550.03;;;9.23;85.45
9523;BME280;63165;43.016;25.784;2023-04-09T06:40:31;100555.19;;;9.40;84.89
9523;BME280;63165;43.016;25.784;2023-04-09T06:42:58;100549.88;;;9.55;84.16
9523;BME280;63165;43.016;25.784;2023-04-09T06:45:27;100555.91;;;9.74;83.33
9523;BME280;63165;43.016;25.784;2023-04-09T06:47:57;100550.56;;;9.94;83.18
9523;BME280;63165;43.016;25.784;2023-04-09T06:50:27;100543.47;;;10.13;80.96
9523;BME280;63165;43.016;25.784;2023-04-09T06:53:05;100539.91;;;10.31;79.19
9523;BME280;63165;43.016;25.784;2023-04-09T06:55:33;100543.22;;;10.53;78.39
9523;BME280;63165;43.016;25.784;2023-04-09T06:58:03;100537.78;;;10.73;77.05
9523;BME280;63165;43.016;25.784;2023-04-09T07:00:30;100542.81;;;10.93;75.89
9523;BME280;63165;43.016;25.784;2023-04-09T07:02:57;100538.25;;;11.14;75.28
9523;BME280;63165;43.016;25.784;2023-04-09T07:05:26;100535.41;;;11.34;74.04
9523;BME280;63165;43.016;25.784;2023-04-09T07:07:57;100543.91;;;11.53;73.60
9523;BME280;63165;43.016;25.784;2023-04-09T07:10:25;100550.59;;;11.74;72.66
9523;BME280;63165;43.016;25.784;2023-04-09T07:12:53;100539.06;;;11.87;70.56
9523;BME280;63165;43.016;25.784;2023-04-09T07:15:21;100533.59;;;12.06;69.68
9523;BME280;63165;43.016;25.784;2023-04-09T07:17:48;100531.53;;;12.24;68.25
9523;BME280;63165;43.016;25.784;2023-04-09T07:20:16;100532.16;;;12.40;67.66
9523;BME280;63165;43.016;25.784;2023-04-09T07:22:43;100526.56;;;12.60;67.61
9523;BME280;63165;43.016;25.784;2023-04-09T07:25:12;100531.44;;;12.82;66.59
9523;BME280;63165;43.016;25.784;2023-04-09T07:27:39;100532.81;;;13.03;65.88
9523;BME280;63165;43.016;25.784;2023-04-09T07:30:08;100528.97;;;13.21;65.19
9523;BME280;63165;43.016;25.784;2023-04-09T07:32:36;100521.63;;;13.38;64.73
9523;BME280;63165;43.016;25.784;2023-04-09T07:38:02;100519.25;;;13.68;62.81
9523;BME280;63165;43.016;25.784;2023-04-09T07:40:53;100524.09;;;13.87;61.82
9523;BME280;63165;43.016;25.784;2023-04-09T07:43:21;100514.97;;;14.03;62.09
9523;BME280;63165;43.016;25.784;2023-04-09T07:45:51;100517.28;;;14.15;61.26
9523;BME280;63165;43.016;25.784;2023-04-09T07:48:19;100510.69;;;14.35;60.97
9523;BME280;63165;43.016;25.784;2023-04-09T07:50:48;100512.25;;;14.42;59.97
9523;BME280;63165;43.016;25.784;2023-04-09T07:53:18;100509.34;;;14.53;59.59
9523;BME280;63165;43.016;25.784;2023-04-09T07:55:46;100513.16;;;14.75;60.18
9523;BME280;63165;43.016;25.784;2023-04-09T07:58:16;100507.31;;;14.99;60.21
9523;BME280;63165;43.016;25.784;2023-04-09T08:00:44;100511.19;;;15.17;58.83
9523;BME280;63165;43.016;25.784;2023-04-09T08:03:11;100518.72;;;15.30;58.14
9523;BME280;63165;43.016;25.784;2023-04-09T08:05:39;100504.84;;;15.53;57.53
9523;BME280;63165;43.016;25.784;2023-04-09T08:08:06;100500.78;;;15.71;56.50
9523;BME280;63165;43.016;25.784;2023-04-09T08:10:37;100499.50;;;15.86;55.18
9523;BME280;63165;43.016;25.784;2023-04-09T08:13:05;100502.41;;;16.05;55.52
9523;BME280;63165;43.016;25.784;2023-04-09T08:15:33;100504.50;;;16.22;55.02
9523;BME280;63165;43.016;25.784;2023-04-09T08:18:00;100507.72;;;16.30;53.42
9523;BME280;63165;43.016;25.784;2023-04-09T08:20:28;100506.41;;;16.44;52.54
9523;BME280;63165;43.016;25.784;2023-04-09T08:23:37;100505.09;;;16.57;51.82
9523;BME280;63165;43.016;25.784;2023-04-09T08:26:07;100498.66;;;16.64;50.44
9523;BME280;63165;43.016;25.784;2023-04-09T08:29:01;100501.13;;;16.71;48.15
9523;BME280;63165;43.016;25.784;2023-04-09T08:31:31;100503.16;;;16.89;47.75
9523;BME280;63165;43.016;25.784;2023-04-09T08:33:59;100496.59;;;16.99;47.29
9523;BME280;63165;43.016;25.784;2023-04-09T08:36:26;100502.59;;;17.04;46.85
9523;BME280;63165;43.016;25.784;2023-04-09T08:38:54;100496.59;;;17.24;45.26
9523;BME280;63165;43.016;25.784;2023-04-09T08:41:23;100500.53;;;17.36;45.11
9523;BME280;63165;43.016;25.784;2023-04-09T08:43:51;100490.16;;;17.54;45.80
9523;BME280;63165;43.016;25.784;2023-04-09T08:46:20;100502.06;;;17.65;46.31
9523;BME280;63165;43.016;25.784;2023-04-09T08:48:50;100487.59;;;17.74;45.70
9523;BME280;63165;43.016;25.784;2023-04-09T08:51:25;100498.88;;;17.79;44.76
9523;BME280;63165;43.016;25.784;2023-04-09T08:53:55;100494.44;;;17.80;43.97
9523;BME280;63165;43.016;25.784;2023-04-09T08:56:23;100486.56;;;17.78;43.58
9523;BME280;63165;43.016;25.784;2023-04-09T08:58:54;100490.75;;;17.84;43.72
9523;BME280;63165;43.016;25.784;2023-04-09T09:01:25;100493.13;;;17.92;43.38
9523;BME280;63165;43.016;25.784;2023-04-09T09:03:55;100484.94;;;17.98;43.16
9523;BME280;63165;43.016;25.784;2023-04-09T09:06:26;100484.00;;;17.99;43.06
9523;BME280;63165;43.016;25.784;2023-04-09T09:09:03;100474.38;;;17.98;42.83
9523;BME280;63165;43.016;25.784;2023-04-09T09:11:31;100471.34;;;18.07;42.30
9523;BME280;63165;43.016;25.784;2023-04-09T09:14:03;100470.28;;;18.11;41.70
9523;BME280;63165;43.016;25.784;2023-04-09T09:16:33;100475.31;;;18.17;41.26
9523;BME280;63165;43.016;25.784;2023-04-09T09:19:04;100472.56;;;18.20;41.18
9523;BME280;63165;43.016;25.784;2023-04-09T09:21:31;100478.97;;;18.15;41.27
9523;BME280;63165;43.016;25.784;2023-04-09T09:24:01;100462.06;;;18.17;40.21
9523;BME280;63165;43.016;25.784;2023-04-09T09:26:29;100475.19;;;18.20;39.73
9523;BME280;63165;43.016;25.784;2023-04-09T09:28:56;100472.41;;;18.23;39.61
9523;BME280;63165;43.016;25.784;2023-04-09T09:31:25;100463.09;;;18.35;39.62
9523;BME280;63165;43.016;25.784;2023-04-09T09:33:53;100465.09;;;18.51;39.29
9523;BME280;63165;43.016;25.784;2023-04-09T09:36:31;100446.81;;;18.65;38.88
9523;BME280;63165;43.016;25.784;2023-04-09T09:39:00;100456.78;;;18.79;39.60
9523;BME280;63165;43.016;25.784;2023-04-09T09:41:34;100447.34;;;18.94;40.04
9523;BME280;63165;43.016;25.784;2023-04-09T09:44:05;100452.00;;;19.08;40.14
9523;BME280;63165;43.016;25.784;2023-04-09T09:46:36;100443.72;;;19.15;39.80
9523;BME280;63165;43.016;25.784;2023-04-09T09:49:07;100442.22;;;19.29;39.56
9523;BME280;63165;43.016;25.784;2023-04-09T09:51:38;100443.34;;;19.42;38.98
9523;BME280;63165;43.016;25.784;2023-04-09T09:54:06;100432.25;;;19.53;38.26
9523;BME280;63165;43.016;25.784;2023-04-09T09:56:37;100430.91;;;19.62;38.30
9523;BME280;63165;43.016;25.784;2023-04-09T09:59:14;100440.31;;;19.69;37.38
9523;BME280;63165;43.016;25.784;2023-04-09T10:01:42;100436.03;;;19.66;36.94
9523;BME280;63165;43.016;25.784;2023-04-09T10:04:13;100428.13;;;19.65;36.21
9523;BME280;63165;43.016;25.784;2023-04-09T10:06:42;100427.03;;;19.69;36.13
9523;BME280;63165;43.016;25.784;2023-04-09T10:09:11;100417.88;;;19.76;37.06
9523;BME280;63165;43.016;25.784;2023-04-09T10:11:41;100426.16;;;19.87;37.39
9523;BME280;63165;43.016;25.784;2023-04-09T10:14:15;100421.81;;;20.04;36.98
9523;BME280;63165;43.016;25.784;2023-04-09T10:16:46;100419.00;;;20.07;36.96
9523;BME280;63165;43.016;25.784;2023-04-09T10:19:17;100416.13;;;20.11;37.32
9523;BME280;63165;43.016;25.784;2023-04-09T10:21:50;100423.94;;;20.14;36.18
9523;BME280;63165;43.016;25.784;2023-04-09T10:24:21;100409.94;;;20.28;36.13
9523;BME280;63165;43.016;25.784;2023-04-09T10:26:53;100412.28;;;20.34;34.44
9523;BME280;63165;43.016;25.784;2023-04-09T10:29:26;100409.53;;;20.36;34.55
9523;BME280;63165;43.016;25.784;2023-04-09T10:32:03;100409.31;;;20.41;34.11
9523;BME280;63165;43.016;25.784;2023-04-09T10:34:38;100392.91;;;20.50;33.99
9523;BME280;63165;43.016;25.784;2023-04-09T10:37:12;100392.34;;;20.61;34.46
9523;BME280;63165;43.016;25.784;2023-04-09T10:39:45;100396.00;;;20.75;34.04
9523;BME280;63165;43.016;25.784;2023-04-09T10:42:18;100385.03;;;20.82;33.00
9523;BME280;63165;43.016;25.784;2023-04-09T10:45:03;100387.97;;;20.93;33.65
9523;BME280;63165;43.016;25.784;2023-04-09T10:47:33;100381.03;;;21.06;32.84
9523;BME280;63165;43.016;25.784;2023-04-09T10:50:18;100366.09;;;21.04;32.22
9523;BME280;63165;43.016;25.784;2023-04-09T10:52:45;100372.78;;;20.95;32.20
9523;BME280;63165;43.016;25.784;2023-04-09T10:55:39;100373.53;;;20.81;31.77
9523;BME280;63165;43.016;25.784;2023-04-09T10:58:09;100387.22;;;20.73;31.89
9523;BME280;63165;43.016;25.784;2023-04-09T11:00:38;100361.97;;;20.65;31.76
9523;BME280;63165;43.016;25.784;2023-04-09T11:03:18;100369.66;;;20.71;32.37
9523;BME280;63165;43.016;25.784;2023-04-09T11:05:51;100364.19;;;20.90;32.38
9523;BME280;63165;43.016;25.784;2023-04-09T11:08:37;100365.06;;;21.06;31.95
9523;BME280;63165;43.016;25.784;2023-04-09T11:11:04;100361.38;;;21.09;31.31
9523;BME280;63165;43.016;25.784;2023-04-09T11:13:43;100367.75;;;21.06;30.85
9523;BME280;63165;43.016;25.784;2023-04-09T11:16:22;100361.53;;;21.06;31.32
9523;BME280;63165;43.016;25.784;2023-04-09T11:19:13;100365.03;;;20.90;30.66
9523;BME280;63165;43.016;25.784;2023-04-09T11:21:42;100354.91;;;20.65;30.16
9523;BME280;63165;43.016;25.784;2023-04-09T11:24:11;100353.09;;;20.66;30.79
9523;BME280;63165;43.016;25.784;2023-04-09T11:26:42;100356.50;;;20.68;31.03
9523;BME280;63165;43.016;25.784;2023-04-09T11:29:10;100363.41;;;20.54;30.83
9523;BME280;63165;43.016;25.784;2023-04-09T11:34:16;100343.38;;;20.31;30.81
9523;BME280;63165;43.016;25.784;2023-04-09T11:36:47;100346.78;;;20.16;31.19
9523;BME280;63165;43.016;25.784;2023-04-09T11:39:25;100342.03;;;19.88;29.28
9523;BME280;63165;43.016;25.784;2023-04-09T11:41:52;100336.41;;;19.76;30.16
9523;BME280;63165;43.016;25.784;2023-04-09T11:44:20;100331.81;;;19.80;30.97
9523;BME280;63165;43.016;25.784;2023-04-09T11:46:56;100330.50;;;19.89;31.11
9523;BME280;63165;43.016;25.784;2023-04-09T11:49:39;100323.31;;;19.91;31.16
9523;BME280;63165;43.016;25.784;2023-04-09T11:55:28;100331.03;;;19.95;30.90
9523;BME280;63165;43.016;25.784;2023-04-09T11:57:57;100310.41;;;20.01;30.10
9523;BME280;63165;43.016;25.784;2023-04-09T12:00:26;100318.22;;;20.04;30.21
9523;BME280;63165;43.016;25.784;2023-04-09T12:02:59;100320.19;;;20.00;30.03
9523;BME280;63165;43.016;25.784;2023-04-09T12:05:29;100309.13;;;19.92;30.45
9523;BME280;63165;43.016;25.784;2023-04-09T12:07:58;100311.66;;;19.76;30.27
9523;BME280;63165;43.016;25.784;2023-04-09T12:10:28;100314.53;;;19.71;31.10
9523;BME280;63165;43.016;25.784;2023-04-09T12:13:01;100305.88;;;19.68;30.81
9523;BME280;63165;43.016;25.784;2023-04-09T12:15:31;100294.69;;;19.61;31.14
9523;BME280;63165;43.016;25.784;2023-04-09T12:18:00;100291.41;;;19.56;31.08
9523;BME280;63165;43.016;25.784;2023-04-09T12:20:42;100299.69;;;19.50;31.35
9523;BME280;63165;43.016;25.784;2023-04-09T12:23:10;100297.81;;;19.52;31.22
9523;BME280;63165;43.016;25.784;2023-04-09T12:25:42;100294.22;;;19.53;30.80
9523;BME280;63165;43.016;25.784;2023-04-09T12:28:12;100297.59;;;19.56;31.20
9523;BME280;63165;43.016;25.784;2023-04-09T12:30:41;100296.63;;;19.57;31.20
9523;BME280;63165;43.016;25.784;2023-04-09T12:33:11;100295.31;;;19.66;30.37
9523;BME280;63165;43.016;25.784;2023-04-09T12:35:41;100291.91;;;19.82;29.89
9523;BME280;63165;43.016;25.784;2023-04-09T12:38:08;100290.91;;;20.02;30.20
9523;BME280;63165;43.016;25.784;2023-04-09T12:40:35;100277.66;;;20.17;30.32
9523;BME280;63165;43.016;25.784;2023-04-09T12:43:04;100281.63;;;20.26;30.13
9523;BME280;63165;43.016;25.784;2023-04-09T12:45:32;100280.66;;;20.27;29.29
9523;BME280;63165;43.016;25.784;2023-04-09T12:48:12;100274.06;;;20.19;29.37
9523;BME280;63165;43.016;25.784;2023-04-09T12:50:39;100273.69;;;20.09;29.68
9523;BME280;63165;43.016;25.784;2023-04-09T12:53:07;100274.34;;;19.96;29.42
9523;BME280;63165;43.016;25.784;2023-04-09T12:55:34;100262.38;;;19.88;29.59
9523;BME280;63165;43.016;25.784;2023-04-09T12:58:01;100267.88;;;19.85;30.05
9523;BME280;63165;43.016;25.784;2023-04-09T13:00:31;100274.97;;;19.84;30.18
9523;BME280;63165;43.016;25.784;2023-04-09T13:02:58;100268.88;;;19.82;29.82
9523;BME280;63165;43.016;25.784;2023-04-09T13:05:26;100272.47;;;19.81;29.82
9523;BME280;63165;43.016;25.784;2023-04-09T13:07:56;100264.59;;;19.80;29.56
9523;BME280;63165;43.016;25.784;2023-04-09T13:10:23;100275.44;;;19.75;29.52
9523;BME280;63165;43.016;25.784;2023-04-09T13:12:50;100264.66;;;19.78;29.82
9523;BME280;63165;43.016;25.784;2023-04-09T13:15:49;100265.81;;;19.90;30.86
9523;BME280;63165;43.016;25.784;2023-04-09T13:19:06;100260.44;;;19.91;30.40
9523;BME280;63165;43.016;25.784;2023-04-09T13:21:36;100256.00;;;19.92;30.58
9523;BME280;63165;43.016;25.784;2023-04-09T13:24:30;100253.25;;;19.93;31.34
9523;BME280;63165;43.016;25.784;2023-04-09T13:29:50;100251.34;;;19.95;30.74
9523;BME280;63165;43.016;25.784;2023-04-09T13:35:30;100252.38;;;19.93;30.80
9523;BME280;63165;43.016;25.784;2023-04-09T13:38:02;100253.72;;;19.84;30.89
9523;BME280;63165;43.016;25.784;2023-04-09T13:40:33;100250.47;;;19.79;31.21
9523;BME280;63165;43.016;25.784;2023-04-09T13:43:13;100242.66;;;19.76;31.65
9523;BME280;63165;43.016;25.784;2023-04-09T13:45:41;100254.34;;;19.72;32.04
9523;BME280;63165;43.016;25.784;2023-04-09T13:48:09;100254.81;;;19.63;31.23
9523;BME280;63165;43.016;25.784;2023-04-09T13:50:38;100246.59;;;19.50;30.58
9523;BME280;63165;43.016;25.784;2023-04-09T13:53:05;100248.88;;;19.40;30.69
9523;BME280;63165;43.016;25.784;2023-04-09T13:55:32;100242.28;;;19.30;31.69
9523;BME280;63165;43.016;25.784;2023-04-09T13:57:59;100252.28;;;19.25;31.81
9523;BME280;63165;43.016;25.784;2023-04-09T14:00:33;100249.13;;;19.16;32.61
9523;BME280;63165;43.016;25.784;2023-04-09T14:03:04;100248.66;;;19.08;32.36
9523;BME280;63165;43.016;25.784;2023-04-09T14:05:31;100254.25;;;19.02;32.88
9523;BME280;63165;43.016;25.784;2023-04-09T14:08:00;100251.97;;;18.94;32.77
9523;BME280;63165;43.016;25.784;2023-04-09T14:10:28;100259.22;;;18.91;32.75
9523;BME280;63165;43.016;25.784;2023-04-09T14:12:56;100252.28;;;18.88;32.85